sensor_id;sensor_type;location;lat;lon;timestamp;temperature;humidity
59025;DHT22;44806;48.008;13.666;2022-12-29T00:01:38;1.40;99.90
59025;DHT22;44806;48.008;13.666;2022-12-29T00:04:06;1.30;99.90
59025;DHT22;44806;48.008;13.666;2022-12-29T00:06:33;1.40;99.90
59025;DHT22;44806;48.008;13.666;2022-12-29T00:09:01;1.30;99.90
59025;DHT22;44806;48.008;13.666;2022-12-29T00:11:28;1.30;99.90
59025;DHT22;44806;48.008;13.666;2022-12-29T00:13:55;1.40;99.90
59025;DHT22;44806;48.008;13.666;2022-12-29T00:16:41;1.40;99.90
59025;DHT22;44806;48.008;13.666;2022-12-29T00:19:09;1.30;99.90
59025;DHT22;44806;48.008;13.666;2022-12-29T00:21:57;1.30;99.90
59025;DHT22;44806;48.008;13.666;2022-12-29T00:24:43;1.30;99.90
59025;DHT22;44806;48.008;13.666;2022-12-29T00:27:28;1.30;99.90
59025;DHT22;44806;48.008;13.666;2022-12-29T00:30:15;1.30;99.90
59025;DHT22;44806;48.008;13.666;2022-12-29T00:33:00;1.30;99.90
59025;DHT22;44806;48.008;13.666;2022-12-29T00:35:47;1.30;99.90
59025;DHT22;44806;48.008;13.666;2022-12-29T00:38:18;1.20;99.90
59025;DHT22;44806;48.008;13.666;2022-12-29T00:41:04;1.20;99.90
59025;DHT22;44806;48.008;13.666;2022-12-29T00:43:52;1.20;99.90
59025;DHT22;44806;48.008;13.666;2022-12-29T00:46:36;1.10;99.90
59025;DHT22;44806;48.008;13.666;2022-12-29T00:49:05;1.20;99.90
59025;DHT22;44806;48.008;13.666;2022-12-29T00:51:49;1.20;99.90
59025;DHT22;44806;48.008;13.666;2022-12-29T00:54:17;1.20;99.90
59025;DHT22;44806;48.008;13.666;2022-12-29T00:56:47;1.20;99.90
59025;DHT22;44806;48.008;13.666;2022-12-29T00:59:14;1.20;99.90
59025;DHT22;44806;48.008;13.666;2022-12-29T01:01:41;1.20;99.90
59025;DHT22;44806;48.008;13.666;2022-12-29T01:04:09;1.30;99.90
59025;DHT22;44806;48.008;13.666;2022-12-29T01:06:37;1.30;99.90
59025;DHT22;44806;48.008;13.666;2022-12-29T01:09:05;1.30;99.90
59025;DHT22;44806;48.008;13.666;2022-12-29T01:11:52;1.30;99.90
59025;DHT22;44806;48.008;13.666;2022-12-29T01:14:19;1.30;99.90
59025;DHT22;44806;48.008;13.666;2022-12-29T01:16:47;1.30;99.90
59025;DHT22;44806;48.008;13.666;2022-12-29T01:19:15;1.30;99.90
59025;DHT22;44806;48.008;13.666;2022-12-29T01:21:42;1.30;99.90
59025;DHT22;44806;48.008;13.666;2022-12-29T01:24:09;1.30;99.90
59025;DHT22;44806;48.008;13.666;2022-12-29T01:26:36;1.20;99.90
59025;DHT22;44806;48.008;13.666;2022-12-29T01:29:05;1.20;99.90
59025;DHT22;44806;48.008;13.666;2022-12-29T01:31:32;1.20;99.90
59025;DHT22;44806;48.008;13.666;2022-12-29T01:33:59;1.20;99.90
59025;DHT22;44806;48.008;13.666;2022-12-29T01:36:26;1.20;99.90
59025;DHT22;44806;48.008;13.666;2022-12-29T01:38:53;1.20;99.90
59025;DHT22;44806;48.008;13.666;2022-12-29T01:41:20;1.00;99.90
59025;DHT22;44806;48.008;13.666;2022-12-29T01:43:49;1.10;99.90
59025;DHT22;44806;48.008;13.666;2022-12-29T01:46:23;1.10;99.90
59025;DHT22;44806;48.008;13.666;2022-12-29T01:48:54;1.10;99.90
59025;DHT22;44806;48.008;13.666;2022-12-29T01:51:23;1.10;99.90
59025;DHT22;44806;48.008;13.666;2022-12-29T01:53:53;1.10;99.90
59025;DHT22;44806;48.008;13.666;2022-12-29T01:56:21;1.10;99.90
59025;DHT22;44806;48.008;13.666;2022-12-29T01:58:53;1.10;99.90
59025;DHT22;44806;48.008;13.666;2022-12-29T02:01:23;1.10;99.90
59025;DHT22;44806;48.008;13.666;2022-12-29T02:03:50;1.20;99.90
59025;DHT22;44806;48.008;13.666;2022-12-29T02:06:21;1.20;99.90
59025;DHT22;44806;48.008;13.666;2022-12-29T02:08:50;1.10;99.90
59025;DHT22;44806;48.008;13.666;2022-12-29T02:11:20;1.10;99.90
59025;DHT22;44806;48.008;13.666;2022-12-29T02:13:47;1.00;99.90
59025;DHT22;44806;48.008;13.666;2022-12-29T02:16:32;1.10;99.90
59025;DHT22;44806;48.008;13.666;2022-12-29T02:19:44;1.00;99.90
59025;DHT22;44806;48.008;13.666;2022-12-29T02:22:20;1.00;99.90
59025;DHT22;44806;48.008;13.666;2022-12-29T02:25:20;1.00;99.90
59025;DHT22;44806;48.008;13.666;2022-12-29T02:27:55;1.00;99.90
59025;DHT22;44806;48.008;13.666;2022-12-29T02:30:42;1.00;99.90
59025;DHT22;44806;48.008;13.666;2022-12-29T02:33:23;0.90;99.90
59025;DHT22;44806;48.008;13.666;2022-12-29T02:35:56;0.90;99.90
59025;DHT22;44806;48.008;13.666;2022-12-29T02:38:36;0.90;99.90
59025;DHT22;44806;48.008;13.666;2022-12-29T02:41:10;0.80;99.90
59025;DHT22;44806;48.008;13.666;2022-12-29T02:43:47;0.80;99.90
59025;DHT22;44806;48.008;13.666;2022-12-29T02:46:20;0.80;99.90
59025;DHT22;44806;48.008;13.666;2022-12-29T02:48:54;0.80;99.90
59025;DHT22;44806;48.008;13.666;2022-12-29T02:51:27;0.80;99.90
59025;DHT22;44806;48.008;13.666;2022-12-29T02:53:56;0.80;99.90
59025;DHT22;44806;48.008;13.666;2022-12-29T02:56:41;0.80;99.90
59025;DHT22;44806;48.008;13.666;2022-12-29T02:59:09;0.80;99.90
59025;DHT22;44806;48.008;13.666;2022-12-29T03:01:51;0.80;99.90
59025;DHT22;44806;48.008;13.666;2022-12-29T03:04:42;0.80;99.90
59025;DHT22;44806;48.008;13.666;2022-12-29T03:07:20;0.70;99.90
59025;DHT22;44806;48.008;13.666;2022-12-29T03:09:55;0.80;99.90
59025;DHT22;44806;48.008;13.666;2022-12-29T03:12:29;0.70;99.90
59025;DHT22;44806;48.008;13.666;2022-12-29T03:15:20;0.70;99.90
59025;DHT22;44806;48.008;13.666;2022-12-29T03:18:13;0.70;99.90
59025;DHT22;44806;48.008;13.666;2022-12-29T03:20:44;0.70;99.90
59025;DHT22;44806;48.008;13.666;2022-12-29T03:23:13;0.70;99.90
59025;DHT22;44806;48.008;13.666;2022-12-29T03:25:44;0.70;99.90
59025;DHT22;44806;48.008;13.666;2022-12-29T03:28:16;0.70;99.90
59025;DHT22;44806;48.008;13.666;2022-12-29T03:30:46;0.70;99.90
59025;DHT22;44806;48.008;13.666;2022-12-29T03:33:17;0.70;99.90
59025;DHT22;44806;48.008;13.666;2022-12-29T03:35:46;0.60;99.90
59025;DHT22;44806;48.008;13.666;2022-12-29T03:38:19;0.60;99.90
59025;DHT22;44806;48.008;13.666;2022-12-29T03:40:52;0.60;99.90
59025;DHT22;44806;48.008;13.666;2022-12-29T03:43:19;0.60;99.90
59025;DHT22;44806;48.008;13.666;2022-12-29T03:45:46;0.60;99.90
59025;DHT22;44806;48.008;13.666;2022-12-29T03:48:15;0.60;99.90
59025;DHT22;44806;48.008;13.666;2022-12-29T03:50:42;0.60;99.90
59025;DHT22;44806;48.008;13.666;2022-12-29T03:53:09;0.60;99.90
59025;DHT22;44806;48.008;13.666;2022-12-29T03:55:36;0.60;99.90
59025;DHT22;44806;48.008;13.666;2022-12-29T03:58:03;0.60;99.90
59025;DHT22;44806;48.008;13.666;2022-12-29T04:00:32;0.60;99.90
59025;DHT22;44806;48.008;13.666;2022-12-29T04:03:00;0.60;99.90
59025;DHT22;44806;48.008;13.666;2022-12-29T04:05:28;0.60;99.90
59025;DHT22;44806;48.008;13.666;2022-12-29T04:07:56;0.50;99.90
59025;DHT22;44806;48.008;13.666;2022-12-29T04:10:23;0.50;99.90
59025;DHT22;44806;48.008;13.666;2022-12-29T04:12:50;0.50;99.90
59025;DHT22;44806;48.008;13.666;2022-12-29T04:15:17;0.50;99.90
59025;DHT22;44806;48.008;13.666;2022-12-29T04:17:45;0.50;99.90
59025;DHT22;44806;48.008;13.666;2022-12-29T04:20:12;0.50;99.90
59025;DHT22;44806;48.008;13.666;2022-12-29T04:23:05;0.40;99.90
59025;DHT22;44806;48.008;13.666;2022-12-29T04:25:33;0.50;99.90
59025;DHT22;44806;48.008;13.666;2022-12-29T04:28:00;0.40;99.90
59025;DHT22;44806;48.008;13.666;2022-12-29T04:30:28;0.40;99.90
59025;DHT22;44806;48.008;13.666;2022-12-29T04:32:55;0.40;99.90
59025;DHT22;44806;48.008;13.666;2022-12-29T04:35:22;0.40;99.90
59025;DHT22;44806;48.008;13.666;2022-12-29T04:37:49;0.40;99.90
59025;DHT22;44806;48.008;13.666;2022-12-29T04:40:17;0.40;99.90
59025;DHT22;44806;48.008;13.666;2022-12-29T04:42:44;0.40;99.90
59025;DHT22;44806;48.008;13.666;2022-12-29T04:45:12;0.40;99.90
59025;DHT22;44806;48.008;13.666;2022-12-29T04:47:39;0.40;99.90
59025;DHT22;44806;48.008;13.666;2022-12-29T04:50:06;0.40;99.90
59025;DHT22;44806;48.008;13.666;2022-12-29T04:52:34;0.40;99.90
59025;DHT22;44806;48.008;13.666;2022-12-29T04:55:01;0.30;99.90
59025;DHT22;44806;48.008;13.666;2022-12-29T04:57:29;0.40;99.90
59025;DHT22;44806;48.008;13.666;2022-12-29T04:59:56;0.30;99.90
59025;DHT22;44806;48.008;13.666;2022-12-29T05:02:23;0.30;99.90
59025;DHT22;44806;48.008;13.666;2022-12-29T05:04:51;0.30;99.90
59025;DHT22;44806;48.008;13.666;2022-12-29T05:07:18;0.30;99.90
59025;DHT22;44806;48.008;13.666;2022-12-29T05:09:45;0.30;99.90
59025;DHT22;44806;48.008;13.666;2022-12-29T05:12:12;0.30;99.90
59025;DHT22;44806;48.008;13.666;2022-12-29T05:14:41;0.30;99.90
59025;DHT22;44806;48.008;13.666;2022-12-29T05:17:08;0.30;99.90
59025;DHT22;44806;48.008;13.666;2022-12-29T05:19:35;0.30;99.90
59025;DHT22;44806;48.008;13.666;2022-12-29T05:22:04;0.30;99.90
59025;DHT22;44806;48.008;13.666;2022-12-29T05:24:31;0.30;99.90
59025;DHT22;44806;48.008;13.666;2022-12-29T05:26:58;0.30;99.90
59025;DHT22;44806;48.008;13.666;2022-12-29T05:29:25;0.30;99.90
59025;DHT22;44806;48.008;13.666;2022-12-29T05:31:53;0.30;99.90
59025;DHT22;44806;48.008;13.666;2022-12-29T05:34:20;0.20;99.90
59025;DHT22;44806;48.008;13.666;2022-12-29T05:36:47;0.20;99.90
59025;DHT22;44806;48.008;13.666;2022-12-29T05:39:15;0.30;99.90
59025;DHT22;44806;48.008;13.666;2022-12-29T05:41:42;0.30;99.90
59025;DHT22;44806;48.008;13.666;2022-12-29T05:44:12;0.30;99.90
59025;DHT22;44806;48.008;13.666;2022-12-29T05:46:39;0.30;99.90
59025;DHT22;44806;48.008;13.666;2022-12-29T05:49:07;0.30;99.90
59025;DHT22;44806;48.008;13.666;2022-12-29T05:51:34;0.20;99.90
59025;DHT22;44806;48.008;13.666;2022-12-29T05:54:02;0.20;99.90
59025;DHT22;44806;48.008;13.666;2022-12-29T05:56:28;0.30;99.90
59025;DHT22;44806;48.008;13.666;2022-12-29T05:58:55;0.20;99.90
59025;DHT22;44806;48.008;13.666;2022-12-29T06:01:22;0.20;99.90
59025;DHT22;44806;48.008;13.666;2022-12-29T06:03:50;0.30;99.90
59025;DHT22;44806;48.008;13.666;2022-12-29T06:06:18;0.30;99.90
59025;DHT22;44806;48.008;13.666;2022-12-29T06:08:45;0.30;99.90
59025;DHT22;44806;48.008;13.666;2022-12-29T06:11:12;0.30;99.90
59025;DHT22;44806;48.008;13.666;2022-12-29T06:13:42;0.30;99.90
59025;DHT22;44806;48.008;13.666;2022-12-29T06:16:12;0.30;99.90
59025;DHT22;44806;48.008;13.666;2022-12-29T06:18:39;0.20;99.90
59025;DHT22;44806;48.008;13.666;2022-12-29T06:21:06;0.20;99.90
59025;DHT22;44806;48.008;13.666;2022-12-29T06:23:35;0.20;99.90
59025;DHT22;44806;48.008;13.666;2022-12-29T06:26:05;0.20;99.90
59025;DHT22;44806;48.008;13.666;2022-12-29T06:28:32;0.20;99.90
59025;DHT22;44806;48.008;13.666;2022-12-29T06:30:59;0.20;99.90
59025;DHT22;44806;48.008;13.666;2022-12-29T06:33:28;0.20;99.90
59025;DHT22;44806;48.008;13.666;2022-12-29T06:35:55;0.30;99.90
59025;DHT22;44806;48.008;13.666;2022-12-29T06:38:23;0.30;99.90
59025;DHT22;44806;48.008;13.666;2022-12-29T06:40:51;0.30;99.90
59025;DHT22;44806;48.008;13.666;2022-12-29T06:43:18;0.30;99.90
59025;DHT22;44806;48.008;13.666;2022-12-29T06:45:45;0.40;99.90
59025;DHT22;44806;48.008;13.666;2022-12-29T06:48:12;0.40;99.90
59025;DHT22;44806;48.008;13.666;2022-12-29T06:50:40;0.40;99.90
59025;DHT22;44806;48.008;13.666;2022-12-29T06:53:07;0.40;99.90
59025;DHT22;44806;48.008;13.666;2022-12-29T06:55:34;0.40;99.90
59025;DHT22;44806;48.008;13.666;2022-12-29T06:58:03;0.50;99.90
59025;DHT22;44806;48.008;13.666;2022-12-29T07:00:32;0.50;99.90
59025;DHT22;44806;48.008;13.666;2022-12-29T07:02:59;0.50;99.90
59025;DHT22;44806;48.008;13.666;2022-12-29T07:05:26;0.50;99.90
59025;DHT22;44806;48.008;13.666;2022-12-29T07:07:53;0.50;99.90
59025;DHT22;44806;48.008;13.666;2022-12-29T07:10:21;0.50;99.90
59025;DHT22;44806;48.008;13.666;2022-12-29T07:12:48;0.60;99.90
59025;DHT22;44806;48.008;13.666;2022-12-29T07:15:17;0.50;99.90
59025;DHT22;44806;48.008;13.666;2022-12-29T07:17:44;0.50;99.90
59025;DHT22;44806;48.008;13.666;2022-12-29T07:20:11;0.50;99.90
59025;DHT22;44806;48.008;13.666;2022-12-29T07:22:38;0.50;99.90
59025;DHT22;44806;48.008;13.666;2022-12-29T07:25:06;0.50;99.90
59025;DHT22;44806;48.008;13.666;2022-12-29T07:27:33;0.50;99.90
59025;DHT22;44806;48.008;13.666;2022-12-29T07:30:00;0.60;99.90
59025;DHT22;44806;48.008;13.666;2022-12-29T07:32:32;0.60;99.90
59025;DHT22;44806;48.008;13.666;2022-12-29T07:34:59;0.60;99.90
59025;DHT22;44806;48.008;13.666;2022-12-29T07:37:26;0.60;99.90
59025;DHT22;44806;48.008;13.666;2022-12-29T07:39:54;0.60;99.90
59025;DHT22;44806;48.008;13.666;2022-12-29T07:42:21;0.60;99.90
59025;DHT22;44806;48.008;13.666;2022-12-29T07:44:48;0.70;99.90
59025;DHT22;44806;48.008;13.666;2022-12-29T07:47:17;0.70;99.90
59025;DHT22;44806;48.008;13.666;2022-12-29T07:49:46;0.70;99.90
59025;DHT22;44806;48.008;13.666;2022-12-29T07:52:13;0.70;99.90
59025;DHT22;44806;48.008;13.666;2022-12-29T07:54:40;0.80;99.90
59025;DHT22;44806;48.008;13.666;2022-12-29T07:57:11;0.80;99.90
59025;DHT22;44806;48.008;13.666;2022-12-29T07:59:38;0.80;99.90
59025;DHT22;44806;48.008;13.666;2022-12-29T08:02:05;0.90;99.90
59025;DHT22;44806;48.008;13.666;2022-12-29T08:04:32;1.00;99.90
59025;DHT22;44806;48.008;13.666;2022-12-29T08:07:01;1.10;99.90
59025;DHT22;44806;48.008;13.666;2022-12-29T08:09:28;1.10;99.90
59025;DHT22;44806;48.008;13.666;2022-12-29T08:11:55;1.20;99.90
59025;DHT22;44806;48.008;13.666;2022-12-29T08:14:22;1.20;99.90
59025;DHT22;44806;48.008;13.666;2022-12-29T08:16:52;1.30;99.90
59025;DHT22;44806;48.008;13.666;2022-12-29T08:19:19;1.30;99.90
59025;DHT22;44806;48.008;13.666;2022-12-29T08:21:46;1.40;99.90
59025;DHT22;44806;48.008;13.666;2022-12-29T08:24:15;1.50;99.90
59025;DHT22;44806;48.008;13.666;2022-12-29T08:26:42;1.50;99.90
59025;DHT22;44806;48.008;13.666;2022-12-29T08:29:09;1.60;99.90
59025;DHT22;44806;48.008;13.666;2022-12-29T08:31:36;1.60;99.90
59025;DHT22;44806;48.008;13.666;2022-12-29T08:34:03;1.70;99.90
59025;DHT22;44806;48.008;13.666;2022-12-29T08:36:31;1.70;99.90
59025;DHT22;44806;48.008;13.666;2022-12-29T08:38:58;1.70;99.90
59025;DHT22;44806;48.008;13.666;2022-12-29T08:41:27;1.80;99.90
59025;DHT22;44806;48.008;13.666;2022-12-29T08:43:54;1.80;99.90
59025;DHT22;44806;48.008;13.666;2022-12-29T08:46:21;1.90;99.90
59025;DHT22;44806;48.008;13.666;2022-12-29T08:48:48;1.90;99.90
59025;DHT22;44806;48.008;13.666;2022-12-29T08:51:18;1.90;99.90
59025;DHT22;44806;48.008;13.666;2022-12-29T08:53:45;1.90;99.90
59025;DHT22;44806;48.008;13.666;2022-12-29T08:56:12;2.00;99.90
59025;DHT22;44806;48.008;13.666;2022-12-29T08:58:43;2.00;99.90
59025;DHT22;44806;48.008;13.666;2022-12-29T09:01:10;2.10;99.90
59025;DHT22;44806;48.008;13.666;2022-12-29T09:03:37;2.20;99.90
59025;DHT22;44806;48.008;13.666;2022-12-29T09:06:05;2.20;99.90
59025;DHT22;44806;48.008;13.666;2022-12-29T09:08:32;2.30;99.90
59025;DHT22;44806;48.008;13.666;2022-12-29T09:11:06;2.40;99.90
59025;DHT22;44806;48.008;13.666;2022-12-29T09:13:34;2.40;99.90
59025;DHT22;44806;48.008;13.666;2022-12-29T09:16:04;2.50;99.90
59025;DHT22;44806;48.008;13.666;2022-12-29T09:18:31;2.60;99.90
59025;DHT22;44806;48.008;13.666;2022-12-29T09:20:59;2.60;99.90
59025;DHT22;44806;48.008;13.666;2022-12-29T09:23:27;2.70;99.90
59025;DHT22;44806;48.008;13.666;2022-12-29T09:25:55;2.80;99.90
59025;DHT22;44806;48.008;13.666;2022-12-29T09:28:22;2.80;99.90
59025;DHT22;44806;48.008;13.666;2022-12-29T09:30:49;2.90;99.90
59025;DHT22;44806;48.008;13.666;2022-12-29T09:33:18;2.90;99.90
59025;DHT22;44806;48.008;13.666;2022-12-29T09:35:50;3.00;99.90
59025;DHT22;44806;48.008;13.666;2022-12-29T09:38:18;3.10;99.90
59025;DHT22;44806;48.008;13.666;2022-12-29T09:40:50;3.10;99.90
59025;DHT22;44806;48.008;13.666;2022-12-29T09:43:29;3.20;99.90
59025;DHT22;44806;48.008;13.666;2022-12-29T09:46:06;3.30;99.90
59025;DHT22;44806;48.008;13.666;2022-12-29T09:48:44;3.30;99.90
59025;DHT22;44806;48.008;13.666;2022-12-29T09:51:16;3.40;99.90
59025;DHT22;44806;48.008;13.666;2022-12-29T09:53:48;3.40;99.90
59025;DHT22;44806;48.008;13.666;2022-12-29T09:56:19;3.40;99.90
59025;DHT22;44806;48.008;13.666;2022-12-29T09:58:52;3.50;99.90
59025;DHT22;44806;48.008;13.666;2022-12-29T10:01:28;3.50;99.90
59025;DHT22;44806;48.008;13.666;2022-12-29T10:04:00;3.60;99.90
59025;DHT22;44806;48.008;13.666;2022-12-29T10:06:35;3.60;99.90
59025;DHT22;44806;48.008;13.666;2022-12-29T10:09:10;3.60;99.90
59025;DHT22;44806;48.008;13.666;2022-12-29T10:12:01;3.60;99.90
59025;DHT22;44806;48.008;13.666;2022-12-29T10:14:39;3.70;99.90
59025;DHT22;44806;48.008;13.666;2022-12-29T10:17:20;3.80;99.90
59025;DHT22;44806;48.008;13.666;2022-12-29T10:20:18;3.90;99.90
59025;DHT22;44806;48.008;13.666;2022-12-29T10:23:17;3.90;99.90
59025;DHT22;44806;48.008;13.666;2022-12-29T10:25:47;4.00;99.90
59025;DHT22;44806;48.008;13.666;2022-12-29T10:28:19;4.00;99.90
59025;DHT22;44806;48.008;13.666;2022-12-29T10:30:48;4.10;99.90
59025;DHT22;44806;48.008;13.666;2022-12-29T10:33:20;4.10;99.90
59025;DHT22;44806;48.008;13.666;2022-12-29T10:35:51;4.10;99.90
59025;DHT22;44806;48.008;13.666;2022-12-29T10:38:24;4.20;99.90
59025;DHT22;44806;48.008;13.666;2022-12-29T10:40:57;4.30;99.90
59025;DHT22;44806;48.008;13.666;2022-12-29T10:43:27;4.30;99.90
59025;DHT22;44806;48.008;13.666;2022-12-29T10:45:57;4.40;99.90
59025;DHT22;44806;48.008;13.666;2022-12-29T10:48:28;4.50;99.90
59025;DHT22;44806;48.008;13.666;2022-12-29T10:50:59;4.60;99.90
59025;DHT22;44806;48.008;13.666;2022-12-29T10:53:35;4.60;99.90
59025;DHT22;44806;48.008;13.666;2022-12-29T10:56:12;4.70;99.90
59025;DHT22;44806;48.008;13.666;2022-12-29T10:58:42;4.80;99.90
59025;DHT22;44806;48.008;13.666;2022-12-29T11:01:12;4.90;99.90
59025;DHT22;44806;48.008;13.666;2022-12-29T11:03:57;5.00;99.90
59025;DHT22;44806;48.008;13.666;2022-12-29T11:06:28;5.00;99.90
59025;DHT22;44806;48.008;13.666;2022-12-29T11:08:57;5.10;99.90
59025;DHT22;44806;48.008;13.666;2022-12-29T11:11:34;5.10;99.90
59025;DHT22;44806;48.008;13.666;2022-12-29T11:14:10;5.20;99.90
59025;DHT22;44806;48.008;13.666;2022-12-29T11:16:38;5.30;99.90
59025;DHT22;44806;48.008;13.666;2022-12-29T11:19:05;5.40;99.90
59025;DHT22;44806;48.008;13.666;2022-12-29T11:21:36;5.50;99.90
59025;DHT22;44806;48.008;13.666;2022-12-29T11:24:19;5.60;99.90
59025;DHT22;44806;48.008;13.666;2022-12-29T11:26:49;5.60;99.90
59025;DHT22;44806;48.008;13.666;2022-12-29T11:29:23;5.70;99.90
59025;DHT22;44806;48.008;13.666;2022-12-29T11:31:52;5.80;99.90
59025;DHT22;44806;48.008;13.666;2022-12-29T11:34:23;6.00;99.90
59025;DHT22;44806;48.008;13.666;2022-12-29T11:36:54;6.10;99.90
59025;DHT22;44806;48.008;13.666;2022-12-29T11:39:30;6.20;99.90
59025;DHT22;44806;48.008;13.666;2022-12-29T11:42:00;6.30;99.90
59025;DHT22;44806;48.008;13.666;2022-12-29T11:44:32;6.40;99.90
59025;DHT22;44806;48.008;13.666;2022-12-29T11:47:02;6.50;99.90
59025;DHT22;44806;48.008;13.666;2022-12-29T11:49:31;6.60;99.90
59025;DHT22;44806;48.008;13.666;2022-12-29T11:52:00;6.70;99.90
59025;DHT22;44806;48.008;13.666;2022-12-29T11:54:30;6.70;99.90
59025;DHT22;44806;48.008;13.666;2022-12-29T11:57:09;6.80;99.90
59025;DHT22;44806;48.008;13.666;2022-12-29T11:59:43;6.90;99.90
59025;DHT22;44806;48.008;13.666;2022-12-29T12:02:40;7.00;99.90
59025;DHT22;44806;48.008;13.666;2022-12-29T12:05:15;7.10;99.90
59025;DHT22;44806;48.008;13.666;2022-12-29T12:07:49;7.10;99.90
59025;DHT22;44806;48.008;13.666;2022-12-29T12:10:26;7.20;99.90
59025;DHT22;44806;48.008;13.666;2022-12-29T12:13:12;7.20;99.90
59025;DHT22;44806;48.008;13.666;2022-12-29T12:15:46;7.30;99.90
59025;DHT22;44806;48.008;13.666;2022-12-29T12:18:18;7.30;99.90
59025;DHT22;44806;48.008;13.666;2022-12-29T12:20:57;7.30;99.90
59025;DHT22;44806;48.008;13.666;2022-12-29T12:23:36;7.40;99.90
59025;DHT22;44806;48.008;13.666;2022-12-29T12:26:12;7.40;99.90
59025;DHT22;44806;48.008;13.666;2022-12-29T12:28:48;7.40;99.90
59025;DHT22;44806;48.008;13.666;2022-12-29T12:31:22;7.50;99.90
59025;DHT22;44806;48.008;13.666;2022-12-29T12:33:57;7.50;99.90
59025;DHT22;44806;48.008;13.666;2022-12-29T12:36:39;7.50;99.90
59025;DHT22;44806;48.008;13.666;2022-12-29T12:39:21;7.50;99.90
59025;DHT22;44806;48.008;13.666;2022-12-29T12:41:58;7.40;99.90
59025;DHT22;44806;48.008;13.666;2022-12-29T12:44:37;7.50;99.90
59025;DHT22;44806;48.008;13.666;2022-12-29T12:47:39;7.50;99.90
59025;DHT22;44806;48.008;13.666;2022-12-29T12:50:27;7.50;99.90
59025;DHT22;44806;48.008;13.666;2022-12-29T12:56:15;7.50;99.90
59025;DHT22;44806;48.008;13.666;2022-12-29T12:58:51;7.60;99.90
59025;DHT22;44806;48.008;13.666;2022-12-29T13:01:29;7.60;99.90
59025;DHT22;44806;48.008;13.666;2022-12-29T13:06:56;7.70;99.90
59025;DHT22;44806;48.008;13.666;2022-12-29T13:09:39;7.70;99.90
59025;DHT22;44806;48.008;13.666;2022-12-29T13:12:18;7.70;99.90
59025;DHT22;44806;48.008;13.666;2022-12-29T13:15:01;7.80;99.90
59025;DHT22;44806;48.008;13.666;2022-12-29T13:17:36;7.80;99.90
59025;DHT22;44806;48.008;13.666;2022-12-29T13:20:11;7.80;99.90
59025;DHT22;44806;48.008;13.666;2022-12-29T13:22:47;7.70;99.90
59025;DHT22;44806;48.008;13.666;2022-12-29T13:25:25;7.80;99.90
59025;DHT22;44806;48.008;13.666;2022-12-29T13:28:00;7.80;99.90
59025;DHT22;44806;48.008;13.666;2022-12-29T13:30:36;7.80;99.90
59025;DHT22;44806;48.008;13.666;2022-12-29T13:33:10;7.80;99.90
59025;DHT22;44806;48.008;13.666;2022-12-29T13:35:55;7.80;99.90
59025;DHT22;44806;48.008;13.666;2022-12-29T13:38:29;7.70;99.90
59025;DHT22;44806;48.008;13.666;2022-12-29T13:41:01;7.70;99.90
59025;DHT22;44806;48.008;13.666;2022-12-29T13:43:33;7.60;99.90
59025;DHT22;44806;48.008;13.666;2022-12-29T13:46:05;7.60;99.90
59025;DHT22;44806;48.008;13.666;2022-12-29T13:48:41;7.60;99.90
59025;DHT22;44806;48.008;13.666;2022-12-29T13:51:11;7.60;99.90
59025;DHT22;44806;48.008;13.666;2022-12-29T13:53:56;7.60;99.90
59025;DHT22;44806;48.008;13.666;2022-12-29T13:56:33;7.60;99.90
59025;DHT22;44806;48.008;13.666;2022-12-29T13:59:11;7.70;99.90
59025;DHT22;44806;48.008;13.666;2022-12-29T14:01:46;7.50;99.90
59025;DHT22;44806;48.008;13.666;2022-12-29T14:04:22;7.60;99.90
59025;DHT22;44806;48.008;13.666;2022-12-29T14:06:59;7.50;99.90
59025;DHT22;44806;48.008;13.666;2022-12-29T14:09:45;7.50;99.90
59025;DHT22;44806;48.008;13.666;2022-12-29T14:12:29;7.50;99.90
59025;DHT22;44806;48.008;13.666;2022-12-29T14:15:22;7.50;99.90
59025;DHT22;44806;48.008;13.666;2022-12-29T14:18:11;7.40;99.90
59025;DHT22;44806;48.008;13.666;2022-12-29T14:20:48;7.40;99.90
59025;DHT22;44806;48.008;13.666;2022-12-29T14:23:34;7.40;99.90
59025;DHT22;44806;48.008;13.666;2022-12-29T14:26:32;7.30;99.90
59025;DHT22;44806;48.008;13.666;2022-12-29T14:29:15;7.20;99.90
59025;DHT22;44806;48.008;13.666;2022-12-29T14:31:44;7.20;99.90
59025;DHT22;44806;48.008;13.666;2022-12-29T14:34:34;7.10;99.90
59025;DHT22;44806;48.008;13.666;2022-12-29T14:37:14;7.20;99.90
59025;DHT22;44806;48.008;13.666;2022-12-29T14:39:48;7.10;99.90
59025;DHT22;44806;48.008;13.666;2022-12-29T14:42:19;7.10;99.90
59025;DHT22;44806;48.008;13.666;2022-12-29T14:44:50;7.10;99.90
59025;DHT22;44806;48.008;13.666;2022-12-29T14:47:22;7.10;99.90
59025;DHT22;44806;48.008;13.666;2022-12-29T14:49:54;7.10;99.90
59025;DHT22;44806;48.008;13.666;2022-12-29T14:52:24;7.20;99.90
59025;DHT22;44806;48.008;13.666;2022-12-29T14:54:54;7.10;99.90
59025;DHT22;44806;48.008;13.666;2022-12-29T14:57:33;7.10;99.90
59025;DHT22;44806;48.008;13.666;2022-12-29T15:00:18;7.20;99.90
59025;DHT22;44806;48.008;13.666;2022-12-29T15:02:49;7.10;99.90
59025;DHT22;44806;48.008;13.666;2022-12-29T15:05:27;7.10;99.90
59025;DHT22;44806;48.008;13.666;2022-12-29T15:07:56;7.10;99.90
59025;DHT22;44806;48.008;13.666;2022-12-29T15:10:25;7.10;99.90
59025;DHT22;44806;48.008;13.666;2022-12-29T15:13:00;7.00;99.90
59025;DHT22;44806;48.008;13.666;2022-12-29T15:15:37;6.90;99.90
59025;DHT22;44806;48.008;13.666;2022-12-29T15:18:22;6.90;99.90
59025;DHT22;44806;48.008;13.666;2022-12-29T15:20:52;6.80;99.90
59025;DHT22;44806;48.008;13.666;2022-12-29T15:23:20;6.80;99.90
59025;DHT22;44806;48.008;13.666;2022-12-29T15:25:50;6.80;99.90
59025;DHT22;44806;48.008;13.666;2022-12-29T15:28:20;6.80;99.90
59025;DHT22;44806;48.008;13.666;2022-12-29T15:30:56;6.70;99.90
59025;DHT22;44806;48.008;13.666;2022-12-29T15:33:27;6.60;99.90
59025;DHT22;44806;48.008;13.666;2022-12-29T15:35:57;6.60;99.90
59025;DHT22;44806;48.008;13.666;2022-12-29T15:38:26;6.50;99.90
59025;DHT22;44806;48.008;13.666;2022-12-29T15:40:56;6.50;99.90
59025;DHT22;44806;48.008;13.666;2022-12-29T15:43:38;6.50;99.90
59025;DHT22;44806;48.008;13.666;2022-12-29T15:46:10;6.40;99.90
59025;DHT22;44806;48.008;13.666;2022-12-29T15:48:39;6.20;99.90
59025;DHT22;44806;48.008;13.666;2022-12-29T15:51:17;6.10;99.90
59025;DHT22;44806;48.008;13.666;2022-12-29T15:53:47;6.10;99.90
59025;DHT22;44806;48.008;13.666;2022-12-29T15:56:16;6.00;99.90
59025;DHT22;44806;48.008;13.666;2022-12-29T15:58:44;5.90;99.90
59025;DHT22;44806;48.008;13.666;2022-12-29T16:01:23;5.90;99.90
59025;DHT22;44806;48.008;13.666;2022-12-29T16:03:54;5.90;99.90
59025;DHT22;44806;48.008;13.666;2022-12-29T16:06:28;6.00;99.90
59025;DHT22;44806;48.008;13.666;2022-12-29T16:08:57;6.00;99.90